Time;durP1;ratioP1;P1;durP2;ratioP2;P2;SDS_P1;SDS_P2;PMS_P1;PMS_P2;Temp;Humidity;BMP_temperature;BMP_pressure;BME280_temperature;BME280_humidity;BME280_pressure;Samples;Min_cycle;Max_cycle;Signal;HPM_P1;HPM_P2
2024/01/11 00:00:48;;;;;;;66.90;24.10;;;;;;;;;;4976512;28;20042;-78
2024/01/11 00:03:14;;;;;;;77.80;26.80;;;;;;;;;;4966094;29;20038;-77
2024/01/11 00:05:41;;;;;;;72.37;25.57;;;;;;;;;;4942135;29;20079;-78
2024/01/11 00:08:07;;;;;;;73.00;25.97;;;;;;;;;;4945668;29;20055;-78
2024/01/11 00:10:32;;;;;;;75.37;27.23;;;;;;;;;;4953919;29;20038;-77
2024/01/11 00:12:58;;;;;;;77.77;27.70;;;;;;;;;;4980408;28;20027;-77
2024/01/11 00:15:25;;;;;;;70.67;25.10;;;;;;;;;;4963769;28;20040;-77
2024/01/11 00:17:50;;;;;;;71.60;26.30;;;;;;;;;;4947381;28;20106;-77
2024/01/11 00:20:16;;;;;;;72.60;25.43;;;;;;;;;;4947030;29;20055;-77
2024/01/11 00:22:43;;;;;;;74.23;27.33;;;;;;;;;;4975517;28;20050;-78
2024/01/11 00:25:09;;;;;;;79.93;29.30;;;;;;;;;;4946028;29;20490;-77
2024/01/11 00:27:34;;;;;;;82.97;27.47;;;;;;;;;;4963467;29;20031;-78
2024/01/11 00:30:00;;;;;;;79.63;27.80;;;;;;;;;;4945875;28;20045;-77
2024/01/11 00:32:26;;;;;;;79.20;25.90;;;;;;;;;;4949600;28;20066;-77
2024/01/11 00:34:53;;;;;;;71.63;26.73;;;;;;;;;;4983184;28;20039;-77
2024/01/11 00:37:19;;;;;;;77.83;25.60;;;;;;;;;;4946295;28;20147;-77
2024/01/11 00:39:44;;;;;;;79.57;26.57;;;;;;;;;;4982112;28;20056;-77
2024/01/11 00:42:10;;;;;;;86.03;25.97;;;;;;;;;;4929856;28;20047;-77
2024/01/11 00:44:36;;;;;;;72.87;26.27;;;;;;;;;;4960769;28;20038;-77
2024/01/11 00:47:02;;;;;;;76.47;27.27;;;;;;;;;;4962697;28;20033;-77
2024/01/11 00:49:27;;;;;;;67.27;24.47;;;;;;;;;;4962670;28;20042;-78
2024/01/11 00:51:53;;;;;;;71.90;26.63;;;;;;;;;;4979890;28;20090;-78
2024/01/11 00:54:18;;;;;;;75.27;24.60;;;;;;;;;;4960435;28;20029;-77
2024/01/11 00:56:44;;;;;;;69.27;23.83;;;;;;;;;;4964131;28;20039;-78
2024/01/11 00:59:10;;;;;;;67.57;24.80;;;;;;;;;;4946961;28;20093;-77
2024/01/11 01:01:35;;;;;;;77.83;26.27;;;;;;;;;;4945016;28;20486;-77
2024/01/11 01:04:00;;;;;;;69.93;23.47;;;;;;;;;;4930166;28;20038;-76
2024/01/11 01:06:27;;;;;;;67.60;26.17;;;;;;;;;;4960872;29;20023;-77
2024/01/11 01:08:52;;;;;;;64.13;25.17;;;;;;;;;;4960559;28;20027;-77
2024/01/11 01:11:18;;;;;;;73.97;24.77;;;;;;;;;;4946372;28;20418;-77
2024/01/11 01:13:43;;;;;;;71.47;24.30;;;;;;;;;;4962188;28;20529;-77
2024/01/11 01:16:09;;;;;;;79.77;26.17;;;;;;;;;;4962737;28;20051;-77
2024/01/11 01:18:34;;;;;;;74.67;22.40;;;;;;;;;;4962471;28;20054;-77
2024/01/11 01:20:59;;;;;;;70.80;23.97;;;;;;;;;;4947084;28;20042;-77
2024/01/11 01:23:25;;;;;;;71.50;24.40;;;;;;;;;;4975429;28;20394;-77
2024/01/11 01:25:50;;;;;;;73.30;25.07;;;;;;;;;;4962869;28;20038;-78
2024/01/11 01:28:16;;;;;;;64.63;22.80;;;;;;;;;;4962843;28;20057;-77
2024/01/11 01:30:44;;;;;;;68.03;24.20;;;;;;;;;;4925773;28;20031;-78
2024/01/11 01:33:09;;;;;;;64.87;24.50;;;;;;;;;;4948363;28;20045;-78
2024/01/11 01:35:35;;;;;;;65.00;23.97;;;;;;;;;;4946722;28;20038;-77
2024/01/11 01:38:00;;;;;;;80.80;26.73;;;;;;;;;;4931456;28;20082;-77
2024/01/11 01:40:26;;;;;;;68.07;24.37;;;;;;;;;;4963584;28;20113;-77
2024/01/11 01:42:57;;;;;;;67.47;24.20;;;;;;;;;;4963195;28;20022;-78
2024/01/11 01:45:23;;;;;;;72.47;25.13;;;;;;;;;;4981829;28;20482;-78
2024/01/11 01:47:49;;;;;;;65.93;24.73;;;;;;;;;;4963630;28;20037;-76
2024/01/11 01:50:15;;;;;;;66.23;23.43;;;;;;;;;;4962736;28;20022;-77
2024/01/11 01:52:43;;;;;;;68.10;23.50;;;;;;;;;;4962181;28;20031;-77
2024/01/11 01:55:09;;;;;;;67.00;25.17;;;;;;;;;;4980498;28;20027;-78
2024/01/11 01:57:35;;;;;;;66.83;24.83;;;;;;;;;;4946549;28;20031;-77
2024/01/11 02:00:02;;;;;;;74.10;23.87;;;;;;;;;;4961336;28;20031;-77
2024/01/11 02:02:42;;;;;;;74.77;25.47;;;;;;;;;;4961891;28;20031;-77
2024/01/11 02:05:10;;;;;;;62.67;23.33;;;;;;;;;;4946498;28;20030;-77
2024/01/11 02:07:36;;;;;;;70.87;23.33;;;;;;;;;;4963911;28;20034;-77
2024/01/11 02:10:03;;;;;;;72.33;22.70;;;;;;;;;;4971481;28;20030;-77
2024/01/11 02:12:29;;;;;;;71.40;23.33;;;;;;;;;;4969271;28;20023;-77
2024/01/11 02:14:55;;;;;;;72.87;24.17;;;;;;;;;;4956201;28;20090;-77
2024/01/11 02:17:20;;;;;;;69.03;23.77;;;;;;;;;;4940958;28;20031;-78
2024/01/11 02:19:46;;;;;;;66.27;23.37;;;;;;;;;;4965944;28;20019;-77
2024/01/11 02:22:20;;;;;;;74.10;25.10;;;;;;;;;;4945914;28;20023;-77
2024/01/11 02:24:47;;;;;;;72.20;24.57;;;;;;;;;;4967385;23;20035;-82
2024/01/11 02:27:12;;;;;;;65.80;22.90;;;;;;;;;;4940434;29;20095;-82
2024/01/11 02:29:39;;;;;;;64.97;24.13;;;;;;;;;;4921540;29;20491;-82
2024/01/11 02:32:06;;;;;;;71.17;26.33;;;;;;;;;;4905467;29;20047;-81
2024/01/11 02:34:33;;;;;;;65.73;23.00;;;;;;;;;;4932925;29;20067;-82
2024/01/11 02:37:00;;;;;;;63.90;23.40;;;;;;;;;;4925882;29;20035;-80
2024/01/11 02:39:26;;;;;;;72.60;25.07;;;;;;;;;;4923664;29;20077;-81
2024/01/11 02:41:58;;;;;;;61.07;23.73;;;;;;;;;;4940463;29;20066;-81
2024/01/11 02:44:24;;;;;;;62.03;22.67;;;;;;;;;;4936289;29;20033;-80
2024/01/11 02:46:49;;;;;;;61.60;22.83;;;;;;;;;;4924623;29;20126;-80
2024/01/11 02:49:15;;;;;;;68.27;23.80;;;;;;;;;;4930507;29;20031;-78
2024/01/11 02:51:41;;;;;;;63.43;24.07;;;;;;;;;;4910232;29;20053;-77
2024/01/11 02:54:07;;;;;;;64.87;22.80;;;;;;;;;;4907301;29;20122;-80
2024/01/11 02:56:32;;;;;;;63.83;23.17;;;;;;;;;;4925433;29;20128;-80
2024/01/11 02:58:58;;;;;;;69.53;23.77;;;;;;;;;;4913551;29;20032;-80
2024/01/11 03:01:24;;;;;;;74.70;25.50;;;;;;;;;;4918312;29;20130;-80
2024/01/11 03:03:50;;;;;;;67.73;24.63;;;;;;;;;;4945141;29;20035;-79
2024/01/11 03:06:21;;;;;;;67.73;23.63;;;;;;;;;;4944984;29;20094;-79
2024/01/11 03:08:50;;;;;;;71.63;24.87;;;;;;;;;;4921669;29;20089;-80
2024/01/11 03:11:16;;;;;;;;;;;;;;;;;;4959011;29;20034;-79
2024/01/11 03:13:41;;;;;;;60.00;20.10;;;;;;;;;;4926798;29;19911;-79
2024/01/11 03:16:08;;;;;;;65.00;22.43;;;;;;;;;;4928103;29;20039;-79
2024/01/11 03:18:34;;;;;;;64.87;24.80;;;;;;;;;;4925120;29;20032;-79
2024/01/11 03:21:00;;;;;;;69.33;23.70;;;;;;;;;;4924703;29;20023;-80
2024/01/11 03:23:27;;;;;;;63.43;23.47;;;;;;;;;;4899659;29;20047;-80
2024/01/11 03:25:53;;;;;;;60.37;24.13;;;;;;;;;;4923690;29;20032;-80
2024/01/11 03:28:18;;;;;;;66.40;23.47;;;;;;;;;;4942804;29;20095;-81
2024/01/11 03:30:44;;;;;;;64.80;22.70;;;;;;;;;;4896504;29;20047;-80
2024/01/11 03:33:10;;;;;;;59.13;23.20;;;;;;;;;;4910918;29;20098;-80
2024/01/11 03:35:38;;;;;;;60.90;22.17;;;;;;;;;;4899489;29;20038;-79
2024/01/11 03:38:04;;;;;;;62.65;23.15;;;;;;;;;;4926862;29;20047;-81
2024/01/11 03:40:30;;;;;;;69.93;24.50;;;;;;;;;;4911648;29;20050;-80
2024/01/11 03:42:56;;;;;;;61.73;23.17;;;;;;;;;;4927275;29;20039;-80
2024/01/11 03:45:22;;;;;;;69.03;22.00;;;;;;;;;;4912579;29;20470;-79
2024/01/11 03:47:48;;;;;;;57.77;22.27;;;;;;;;;;4895556;29;20051;-81
2024/01/11 03:50:13;;;;;;;62.27;22.03;;;;;;;;;;4895348;29;20043;-81
2024/01/11 03:52:39;;;;;;;57.47;21.33;;;;;;;;;;4943788;29;20070;-79
2024/01/11 03:55:05;;;;;;;57.20;20.60;;;;;;;;;;4896393;29;20399;-81
2024/01/11 03:57:31;;;;;;;68.37;21.60;;;;;;;;;;4911053;29;20075;-78
2024/01/11 03:59:56;;;;;;;56.30;20.90;;;;;;;;;;4896491;29;20075;-80
2024/01/11 04:02:22;;;;;;;59.57;21.07;;;;;;;;;;4898303;29;20039;-82
2024/01/11 04:04:48;;;;;;;60.03;22.03;;;;;;;;;;4912027;29;20035;-81
2024/01/11 04:07:13;;;;;;;69.17;22.80;;;;;;;;;;4915727;29;20127;-79
2024/01/11 04:09:41;;;;;;;62.15;21.27;;;;;;;;;;4915550;29;20039;-79
2024/01/11 04:12:07;;;;;;;58.50;21.60;;;;;;;;;;4930588;29;20065;-81
2024/01/11 04:14:37;;;;;;;56.77;21.60;;;;;;;;;;4927331;29;20067;-80
2024/01/11 04:17:03;;;;;;;;;;;;;;;;;;4911148;29;20141;-82
2024/01/11 04:19:29;;;;;;;53.67;20.87;;;;;;;;;;4897191;29;19946;-82
2024/01/11 04:21:54;;;;;;;59.77;20.00;;;;;;;;;;4898751;29;20406;-81
2024/01/11 04:24:20;;;;;;;63.03;20.53;;;;;;;;;;4915467;29;20055;-82
2024/01/11 04:26:48;;;;;;;60.78;23.13;;;;;;;;;;4901013;29;20507;-80
2024/01/11 04:29:14;;;;;;;71.53;22.77;;;;;;;;;;4911221;29;20095;-80
2024/01/11 04:31:39;;;;;;;63.40;22.37;;;;;;;;;;4909961;29;20051;-81
2024/01/11 04:34:05;;;;;;;69.33;22.50;;;;;;;;;;4904702;29;20039;-81
2024/01/11 04:36:31;;;;;;;60.97;23.17;;;;;;;;;;4936702;29;20039;-82
2024/01/11 04:38:56;;;;;;;54.97;20.73;;;;;;;;;;4925467;29;20071;-80
2024/01/11 04:41:27;;;;;;;74.60;22.98;;;;;;;;;;4945064;29;20043;-81
2024/01/11 04:43:53;;;;;;;74.90;23.77;;;;;;;;;;4923495;29;20035;-80
2024/01/11 04:46:21;;;;;;;67.93;23.57;;;;;;;;;;4903715;29;20035;-81
2024/01/11 04:48:48;;;;;;;62.30;22.27;;;;;;;;;;4935918;29;20053;-81
2024/01/11 04:51:14;;;;;;;70.97;23.00;;;;;;;;;;4919137;29;20086;-81
2024/01/11 04:53:41;;;;;;;61.57;22.47;;;;;;;;;;4936151;29;20042;-81
2024/01/11 04:56:08;;;;;;;63.13;23.33;;;;;;;;;;4940639;29;20035;-80
2024/01/11 04:58:34;;;;;;;68.80;23.87;;;;;;;;;;4926090;29;20037;-80
2024/01/11 05:01:00;;;;;;;62.50;23.87;;;;;;;;;;4925490;29;20043;-80
2024/01/11 05:03:25;;;;;;;67.70;23.93;;;;;;;;;;4926127;29;20031;-81
2024/01/11 05:05:51;;;;;;;64.70;20.53;;;;;;;;;;4927863;29;20046;-81
2024/01/11 05:08:17;;;;;;;53.13;21.23;;;;;;;;;;4927468;29;20035;-82
2024/01/11 05:10:42;;;;;;;58.97;21.50;;;;;;;;;;4926488;29;20016;-83
2024/01/11 05:13:08;;;;;;;63.03;21.20;;;;;;;;;;4927423;29;20083;-80
2024/01/11 05:15:35;;;;;;;68.37;21.03;;;;;;;;;;4960306;29;20027;-81
2024/01/11 05:18:01;;;;;;;62.83;21.73;;;;;;;;;;4945660;28;20026;-82
2024/01/11 05:20:26;;;;;;;59.93;20.33;;;;;;;;;;4945817;29;20020;-80
2024/01/11 05:22:52;;;;;;;69.90;22.43;;;;;;;;;;4945888;29;20020;-81
2024/01/11 05:25:18;;;;;;;62.73;21.33;;;;;;;;;;4948386;28;20038;-81
2024/01/11 05:27:43;;;;;;;56.37;22.67;;;;;;;;;;4947616;29;20024;-82
2024/01/11 05:30:12;;;;;;;65.30;21.63;;;;;;;;;;4912233;29;20039;-82
2024/01/11 05:32:39;;;;;;;67.43;22.70;;;;;;;;;;4927351;29;20039;-79
2024/01/11 05:35:05;;;;;;;58.40;21.57;;;;;;;;;;4911917;29;20044;-83
2024/01/11 05:37:31;;;;;;;53.40;20.20;;;;;;;;;;4941228;29;20091;-83
2024/01/11 05:40:00;;;;;;;66.83;21.10;;;;;;;;;;4941753;29;20036;-80
2024/01/11 05:42:26;;;;;;;69.17;22.80;;;;;;;;;;4934975;29;20063;-82
2024/01/11 05:44:52;;;;;;;66.13;23.10;;;;;;;;;;4924087;29;20113;-81
2024/01/11 05:47:19;;;;;;;55.10;20.83;;;;;;;;;;4940719;29;20034;-81
2024/01/11 05:49:47;;;;;;;61.30;22.50;;;;;;;;;;4942949;29;20051;-82
2024/01/11 05:52:13;;;;;;;63.42;23.40;;;;;;;;;;4957647;29;20066;-82
2024/01/11 05:54:39;;;;;;;58.33;21.53;;;;;;;;;;4922442;29;20040;-82
2024/01/11 05:57:07;;;;;;;59.73;21.77;;;;;;;;;;4922742;29;20047;-82
2024/01/11 05:59:33;;;;;;;63.53;21.10;;;;;;;;;;4923010;29;20318;-81
2024/01/11 06:02:00;;;;;;;79.00;24.40;;;;;;;;;;4906579;29;20050;-81
2024/01/11 06:04:26;;;;;;;66.90;22.70;;;;;;;;;;4923087;29;20059;-82
2024/01/11 06:06:52;;;;;;;66.63;22.07;;;;;;;;;;4915215;29;20032;-82
2024/01/11 06:09:18;;;;;;;62.27;21.90;;;;;;;;;;4955925;29;20071;-81
2024/01/11 06:11:43;;;;;;;77.07;22.17;;;;;;;;;;4938979;29;20059;-82
2024/01/11 06:14:09;;;;;;;68.03;21.37;;;;;;;;;;4937899;29;20062;-82
2024/01/11 06:16:35;;;;;;;63.97;21.33;;;;;;;;;;4938380;29;20051;-80
2024/01/11 06:19:01;;;;;;;61.93;22.33;;;;;;;;;;4922526;29;20047;-81
2024/01/11 06:21:27;;;;;;;65.17;22.37;;;;;;;;;;4923513;29;20040;-82
2024/01/11 06:23:53;;;;;;;58.13;22.43;;;;;;;;;;4942235;29;20067;-82
2024/01/11 06:26:18;;;;;;;68.27;22.70;;;;;;;;;;4943115;29;20490;-81
2024/01/11 06:28:44;;;;;;;68.47;22.03;;;;;;;;;;4927598;29;20031;-82
2024/01/11 06:31:10;;;;;;;58.70;23.03;;;;;;;;;;4957378;29;20032;-82
2024/01/11 06:33:39;;;;;;;62.80;23.57;;;;;;;;;;4925210;29;20039;-82
2024/01/11 06:36:06;;;;;;;68.50;22.80;;;;;;;;;;4924684;29;20027;-82
2024/01/11 06:38:34;;;;;;;62.87;21.67;;;;;;;;;;4939863;29;20050;-83
2024/01/11 06:40:59;;;;;;;58.65;22.73;;;;;;;;;;4952485;29;20089;-83
2024/01/11 06:43:27;;;;;;;66.40;23.37;;;;;;;;;;4918152;29;20044;-83
2024/01/11 06:45:53;;;;;;;63.00;21.27;;;;;;;;;;4935533;29;20546;-83
2024/01/11 06:48:18;;;;;;;61.23;21.67;;;;;;;;;;4919266;29;20039;-82
2024/01/11 06:50:45;;;;;;;59.27;21.00;;;;;;;;;;4921371;29;20027;-83
2024/01/11 06:53:12;;;;;;;69.23;22.23;;;;;;;;;;4919745;29;20011;-83
2024/01/11 06:55:40;;;;;;;61.93;20.93;;;;;;;;;;4946692;29;20499;-83
2024/01/11 06:58:06;;;;;;;69.72;23.13;;;;;;;;;;4921491;29;20034;-83
2024/01/11 07:00:32;;;;;;;70.93;21.70;;;;;;;;;;4950688;29;20032;-81
2024/01/11 07:02:59;;;;;;;65.80;24.00;;;;;;;;;;4919935;29;20406;-83
2024/01/11 07:05:25;;;;;;;62.72;21.10;;;;;;;;;;4935321;29;20034;-81
2024/01/11 07:07:52;;;;;;;62.63;23.87;;;;;;;;;;4937703;29;20031;-83
2024/01/11 07:10:18;;;;;;;70.10;24.23;;;;;;;;;;4924197;29;20034;-83
2024/01/11 07:12:45;;;;;;;69.10;22.43;;;;;;;;;;4958125;29;20023;-83
2024/01/11 07:15:11;;;;;;;67.63;22.80;;;;;;;;;;4921988;29;20035;-80
2024/01/11 07:17:37;;;;;;;64.00;21.33;;;;;;;;;;4933591;29;20150;-80
2024/01/11 07:20:04;;;;;;;68.73;21.30;;;;;;;;;;4965457;29;20122;-81
2024/01/11 07:22:29;;;;;;;64.10;21.13;;;;;;;;;;4919568;29;20442;-81
2024/01/11 07:24:55;;;;;;;67.47;22.50;;;;;;;;;;4917947;29;20035;-82
2024/01/11 07:27:21;;;;;;;65.57;23.03;;;;;;;;;;4931426;29;20035;-79
2024/01/11 07:29:46;;;;;;;75.03;26.13;;;;;;;;;;4929022;29;20035;-82
2024/01/11 07:32:12;;;;;;;68.57;23.53;;;;;;;;;;4930313;29;20035;-80
2024/01/11 07:34:39;;;;;;;66.07;25.37;;;;;;;;;;4910697;29;20041;-81
2024/01/11 07:37:05;;;;;;;62.67;22.57;;;;;;;;;;4945740;29;20042;-80
2024/01/11 07:39:30;;;;;;;64.13;23.17;;;;;;;;;;4928098;29;20047;-82
2024/01/11 07:41:56;;;;;;;63.63;22.63;;;;;;;;;;4917874;29;20035;-79
2024/01/11 07:44:24;;;;;;;74.60;22.43;;;;;;;;;;4943164;29;20067;-80
2024/01/11 07:46:50;;;;;;;58.83;22.50;;;;;;;;;;4927539;29;20028;-81
2024/01/11 07:49:16;;;;;;;81.40;24.90;;;;;;;;;;4915164;29;20031;-80
2024/01/11 07:51:41;;;;;;;61.63;23.70;;;;;;;;;;4927758;29;20483;-82
2024/01/11 07:54:08;;;;;;;76.33;23.60;;;;;;;;;;4939956;29;20080;-80
2024/01/11 07:56:34;;;;;;;77.67;25.87;;;;;;;;;;4930976;29;20069;-82
2024/01/11 07:59:04;;;;;;;70.43;22.40;;;;;;;;;;4926555;29;20077;-82
2024/01/11 08:01:30;;;;;;;;;;;;;;;;;;4952431;29;20031;-81
2024/01/11 08:03:55;;;;;;;61.37;22.27;;;;;;;;;;4914781;29;19910;-82
2024/01/11 08:06:24;;;;;;;70.87;24.07;;;;;;;;;;4918300;29;20038;-82
2024/01/11 08:08:51;;;;;;;68.78;25.13;;;;;;;;;;4922850;29;20032;-82
2024/01/11 08:11:22;;;;;;;64.63;22.57;;;;;;;;;;4921910;29;20039;-82
2024/01/11 08:13:49;;;;;;;76.07;25.47;;;;;;;;;;4929893;29;20510;-81
2024/01/11 08:16:16;;;;;;;69.33;24.30;;;;;;;;;;4946802;29;20031;-82
2024/01/11 08:18:43;;;;;;;71.17;25.40;;;;;;;;;;4912962;29;20023;-80
2024/01/11 08:21:10;;;;;;;68.90;26.13;;;;;;;;;;4910841;29;20033;-81
2024/01/11 08:23:44;;;;;;;71.07;27.13;;;;;;;;;;4926252;23;20023;-80
2024/01/11 08:26:10;;;;;;;70.37;23.70;;;;;;;;;;4977504;28;20035;-79
2024/01/11 08:28:39;;;;;;;67.57;25.73;;;;;;;;;;4929329;28;20031;-78
2024/01/11 08:31:06;;;;;;;77.77;25.10;;;;;;;;;;4960104;28;20042;-78
2024/01/11 08:33:31;;;;;;;75.60;25.90;;;;;;;;;;4955230;29;20062;-78
2024/01/11 08:35:57;;;;;;;75.87;25.33;;;;;;;;;;4958140;29;20487;-77
2024/01/11 08:38:24;;;;;;;63.93;24.03;;;;;;;;;;4940497;29;20063;-79
2024/01/11 08:40:51;;;;;;;72.80;25.77;;;;;;;;;;4941670;29;20085;-78
2024/01/11 08:43:17;;;;;;;72.87;24.30;;;;;;;;;;4956877;28;20119;-79
2024/01/11 08:45:43;;;;;;;60.57;21.10;;;;;;;;;;4924928;29;20039;-80
2024/01/11 08:48:10;;;;;;;60.93;22.73;;;;;;;;;;4940956;29;20395;-78
2024/01/11 08:50:39;;;;;;;69.97;22.80;;;;;;;;;;4941429;29;20577;-79
2024/01/11 08:53:05;;;;;;;65.28;24.98;;;;;;;;;;4925800;28;20429;-79
2024/01/11 08:55:31;;;;;;;71.47;24.23;;;;;;;;;;4926142;29;20039;-80
2024/01/11 08:57:56;;;;;;;71.87;24.27;;;;;;;;;;4959038;29;20115;-78
2024/01/11 09:00:22;;;;;;;72.60;25.83;;;;;;;;;;4933581;29;20118;-79
2024/01/11 09:02:47;;;;;;;65.03;24.07;;;;;;;;;;4942287;29;20402;-79
2024/01/11 09:05:16;;;;;;;75.73;26.60;;;;;;;;;;4913789;29;20047;-77
2024/01/11 09:07:43;;;;;;;83.33;26.87;;;;;;;;;;4958049;29;20054;-79
2024/01/11 09:10:13;;;;;;;72.57;23.67;;;;;;;;;;4940593;29;20035;-78
2024/01/11 09:12:40;;;;;;;74.57;24.70;;;;;;;;;;4925742;29;20712;-79
2024/01/11 09:15:07;;;;;;;68.53;25.00;;;;;;;;;;4924149;29;20102;-78
2024/01/11 09:17:34;;;;;;;49.65;18.95;;;;;;;;;;4916823;29;20510;-79
2024/01/11 09:20:06;;;;;;;74.00;25.60;;;;;;;;;;4951441;29;20039;-78
2024/01/11 09:22:57;;;;;;;74.33;24.83;;;;;;;;;;4938993;28;20046;-79
2024/01/11 09:25:55;;;;;;;73.00;25.20;;;;;;;;;;4938731;29;20132;-78
2024/01/11 09:28:34;;;;;;;68.20;24.57;;;;;;;;;;4938770;29;20058;-79
2024/01/11 09:31:03;;;;;;;72.27;24.30;;;;;;;;;;4937011;29;20093;-79
2024/01/11 09:33:37;;;;;;;70.72;26.90;;;;;;;;;;4937861;29;20038;-79
2024/01/11 09:36:03;;;;;;;76.97;28.07;;;;;;;;;;4907318;29;20044;-78
2024/01/11 09:38:33;;;;;;;74.33;26.60;;;;;;;;;;4922665;29;20035;-79
2024/01/11 09:41:07;;;;;;;85.60;27.57;;;;;;;;;;4924881;29;20082;-79
2024/01/11 09:43:34;;;;;;;67.70;26.10;;;;;;;;;;4924507;29;20123;-78
2024/01/11 09:46:05;;;;;;;74.60;26.80;;;;;;;;;;4923905;29;20498;-79
2024/01/11 09:48:34;;;;;;;68.53;24.23;;;;;;;;;;4939821;29;20257;-78
2024/01/11 09:51:04;;;;;;;68.07;22.63;;;;;;;;;;4937823;29;20036;-79
2024/01/11 09:54:14;;;;;;;68.07;24.37;;;;;;;;;;4914796;29;20040;-79
2024/01/11 09:57:10;;;;;;;74.37;24.60;;;;;;;;;;4954492;29;20082;-79
2024/01/11 10:07:31;;;;;;;69.43;24.43;;;;;;;;;;4879627;29;20061;-79
2024/01/11 10:11:06;;;;;;;66.60;24.23;;;;;;;;;;4839301;29;20070;-79
2024/01/11 10:14:32;;;;;;;64.40;22.53;;;;;;;;;;4861661;29;20570;-79
2024/01/11 10:21:39;;;;;;;86.30;23.60;;;;;;;;;;4860035;29;20037;-78
2024/01/11 10:25:17;;;;;;;71.93;23.80;;;;;;;;;;5192901;23;20067;-79
2024/01/11 10:27:44;;;;;;;74.50;24.33;;;;;;;;;;4940496;28;20042;-80
2024/01/11 10:30:17;;;;;;;79.80;27.07;;;;;;;;;;4941821;28;20030;-79
2024/01/11 10:32:44;;;;;;;74.33;27.10;;;;;;;;;;4965282;28;20046;-78
2024/01/11 10:35:10;;;;;;;71.07;25.33;;;;;;;;;;4953463;28;20031;-79
2024/01/11 10:37:37;;;;;;;81.53;26.43;;;;;;;;;;4945283;29;20039;-80
2024/01/11 10:40:15;;;;;;;77.85;26.23;;;;;;;;;;4957455;29;20035;-77
2024/01/11 10:42:45;;;;;;;75.73;27.50;;;;;;;;;;4933956;29;20031;-80
2024/01/11 10:45:14;;;;;;;72.77;25.77;;;;;;;;;;4959243;29;20046;-79
2024/01/11 10:47:46;;;;;;;64.27;24.40;;;;;;;;;;4963123;28;20034;-78
2024/01/11 10:50:13;;;;;;;70.90;25.00;;;;;;;;;;4955302;29;20090;-79
2024/01/11 10:52:43;;;;;;;80.13;27.10;;;;;;;;;;4945431;29;20666;-78
2024/01/11 10:55:09;;;;;;;73.60;26.80;;;;;;;;;;4942990;29;20036;-79
2024/01/11 10:57:36;;;;;;;72.47;25.50;;;;;;;;;;4958707;29;20043;-79
2024/01/11 11:00:05;;;;;;;78.37;25.30;;;;;;;;;;4944821;29;20043;-79
2024/01/11 11:02:32;;;;;;;61.10;22.65;;;;;;;;;;4982672;28;20027;-79
2024/01/11 11:05:04;;;;;;;65.03;25.70;;;;;;;;;;4982588;28;20091;-79
2024/01/11 11:07:30;;;;;;;80.67;28.10;;;;;;;;;;4977432;28;20035;-80
2024/01/11 11:09:56;;;;;;;59.90;25.13;;;;;;;;;;4974759;28;20379;-79
2024/01/11 11:12:21;;;;;;;66.90;25.60;;;;;;;;;;4940671;29;20023;-80
2024/01/11 11:14:48;;;;;;;78.20;28.70;;;;;;;;;;4942201;29;20074;-79
2024/01/11 11:17:16;;;;;;;;;;;;;;;;;;4958263;29;20162;-80
2024/01/11 11:19:43;;;;;;;77.97;26.13;;;;;;;;;;4937651;29;19941;-78
2024/01/11 11:22:13;;;;;;;72.30;27.43;;;;;;;;;;4938271;29;20122;-79
2024/01/11 11:24:40;;;;;;;75.23;27.63;;;;;;;;;;4935737;29;20036;-79
2024/01/11 11:27:07;;;;;;;80.40;29.30;;;;;;;;;;4922675;29;20050;-78
2024/01/11 11:29:33;;;;;;;76.07;28.03;;;;;;;;;;4947551;29;20512;-78
2024/01/11 11:32:03;;;;;;;64.53;26.07;;;;;;;;;;4939697;29;20051;-78
2024/01/11 11:34:42;;;;;;;69.53;25.97;;;;;;;;;;4953335;29;20034;-78
2024/01/11 11:37:08;;;;;;;78.83;27.87;;;;;;;;;;4941638;29;20036;-79
2024/01/11 11:39:35;;;;;;;75.07;27.57;;;;;;;;;;4954398;29;20036;-79
2024/01/11 11:42:04;;;;;;;66.60;27.03;;;;;;;;;;4953668;29;20043;-80
2024/01/11 11:44:30;;;;;;;77.47;28.00;;;;;;;;;;4953838;29;20443;-79
2024/01/11 11:47:16;;;;;;;73.27;27.13;;;;;;;;;;4957818;28;20046;-80
2024/01/11 11:50:03;;;;;;;76.17;27.00;;;;;;;;;;4960857;29;20054;-83
2024/01/11 11:52:31;;;;;;;74.95;28.08;;;;;;;;;;4958671;29;20023;-79
2024/01/11 11:55:08;;;;;;;70.03;26.95;;;;;;;;;;4941965;29;20460;-78
2024/01/11 11:57:35;;;;;;;71.20;26.43;;;;;;;;;;4954148;29;20087;-78
2024/01/11 12:00:06;;;;;;;71.67;25.67;;;;;;;;;;4941330;29;20044;-79
2024/01/11 12:02:36;;;;;;;68.80;27.13;;;;;;;;;;4957892;29;20450;-78
2024/01/11 12:05:03;;;;;;;74.00;27.23;;;;;;;;;;4958615;29;20032;-78
2024/01/11 12:07:29;;;;;;;78.43;27.23;;;;;;;;;;4941702;29;20027;-78
2024/01/11 12:09:55;;;;;;;68.57;24.13;;;;;;;;;;4941057;29;20050;-78
2024/01/11 12:12:21;;;;;;;64.93;23.20;;;;;;;;;;4941414;29;20035;-78
2024/01/11 12:14:47;;;;;;;73.73;27.03;;;;;;;;;;4958849;29;20039;-79
2024/01/11 12:17:13;;;;;;;75.77;26.23;;;;;;;;;;4941254;29;20042;-78
2024/01/11 12:19:38;;;;;;;69.57;26.00;;;;;;;;;;4942018;29;20035;-79
2024/01/11 12:22:04;;;;;;;66.27;23.80;;;;;;;;;;4942179;29;20070;-78
2024/01/11 12:24:30;;;;;;;69.03;24.93;;;;;;;;;;4925462;29;20039;-78
2024/01/11 12:26:57;;;;;;;61.87;23.10;;;;;;;;;;4925067;29;20090;-78
2024/01/11 12:29:23;;;;;;;62.47;24.50;;;;;;;;;;4938380;29;20031;-78
2024/01/11 12:31:49;;;;;;;71.00;22.93;;;;;;;;;;4954555;29;20036;-79
2024/01/11 12:34:15;;;;;;;62.17;23.90;;;;;;;;;;4921404;29;20181;-78
2024/01/11 12:36:41;;;;;;;71.50;25.87;;;;;;;;;;4939533;29;20067;-78
2024/01/11 12:39:08;;;;;;;66.40;25.70;;;;;;;;;;4939491;29;20042;-78
2024/01/11 12:41:34;;;;;;;74.00;25.90;;;;;;;;;;4958888;29;20066;-78
2024/01/11 12:44:00;;;;;;;59.08;24.15;;;;;;;;;;4958416;29;20490;-79
2024/01/11 12:46:26;;;;;;;83.23;27.03;;;;;;;;;;4925442;29;20095;-78
2024/01/11 12:48:51;;;;;;;73.07;25.67;;;;;;;;;;4957085;29;20063;-78
2024/01/11 12:51:18;;;;;;;72.47;25.83;;;;;;;;;;4941518;29;20035;-78
2024/01/11 12:53:48;;;;;;;63.47;25.80;;;;;;;;;;4940616;29;20489;-77
2024/01/11 12:56:14;;;;;;;64.70;24.02;;;;;;;;;;4925078;29;20043;-79
2024/01/11 12:58:40;;;;;;;62.30;23.77;;;;;;;;;;4923966;29;20394;-79
2024/01/11 13:01:08;;;;;;;58.40;24.40;;;;;;;;;;4937074;29;20044;-78
2024/01/11 13:03:35;;;;;;;62.15;25.10;;;;;;;;;;4937220;29;20166;-77
2024/01/11 13:06:26;;;;;;;60.03;25.17;;;;;;;;;;4921020;29;20442;-78
2024/01/11 13:08:52;;;;;;;57.47;24.33;;;;;;;;;;4938500;29;20036;-76
2024/01/11 13:11:17;;;;;;;61.43;24.30;;;;;;;;;;4922734;29;20046;-78
2024/01/11 13:13:46;;;;;;;64.95;25.77;;;;;;;;;;4906550;29;20039;-78
2024/01/11 13:16:14;;;;;;;64.53;26.33;;;;;;;;;;4921516;29;20027;-76
2024/01/11 13:18:40;;;;;;;62.22;25.92;;;;;;;;;;4939541;29;20483;-78
2024/01/11 13:21:06;;;;;;;68.07;27.25;;;;;;;;;;4958763;29;20034;-78
2024/01/11 13:23:33;;;;;;;77.63;28.83;;;;;;;;;;4939681;29;20030;-79
2024/01/11 13:25:59;;;;;;;70.22;27.23;;;;;;;;;;4924347;29;20399;-78
2024/01/11 13:28:26;;;;;;;67.50;25.83;;;;;;;;;;4941225;29;20031;-79
2024/01/11 13:30:52;;;;;;;66.32;26.58;;;;;;;;;;4942261;29;20110;-79
2024/01/11 13:33:19;;;;;;;69.65;25.63;;;;;;;;;;4926193;29;20065;-78
2024/01/11 13:35:45;;;;;;;59.85;24.33;;;;;;;;;;4925008;29;20058;-78
2024/01/11 13:38:10;;;;;;;67.28;27.00;;;;;;;;;;4940909;29;20221;-78
2024/01/11 13:40:37;;;;;;;63.15;27.10;;;;;;;;;;4956118;29;20035;-79
2024/01/11 13:43:03;;;;;;;63.72;24.58;;;;;;;;;;4940455;29;20050;-78
2024/01/11 13:45:32;;;;;;;61.05;25.38;;;;;;;;;;4925074;29;20039;-78
2024/01/11 13:47:58;;;;;;;62.67;26.50;;;;;;;;;;4957252;29;20027;-78
2024/01/11 13:50:24;;;;;;;76.97;27.25;;;;;;;;;;4941392;29;20039;-79
2024/01/11 13:52:50;;;;;;;56.33;24.73;;;;;;;;;;4959636;29;20098;-78
2024/01/11 13:55:17;;;;;;;57.50;23.85;;;;;;;;;;4940282;29;20034;-79
2024/01/11 13:57:43;;;;;;;64.88;23.05;;;;;;;;;;4945558;29;20504;-78
2024/01/11 14:00:10;;;;;;;57.03;23.70;;;;;;;;;;4945624;29;20023;-79
2024/01/11 14:02:36;;;;;;;56.45;22.90;;;;;;;;;;4978293;28;20078;-78
2024/01/11 14:05:03;;;;;;;50.53;21.05;;;;;;;;;;4978785;28;20031;-79
2024/01/11 14:07:30;;;;;;;41.47;18.98;;;;;;;;;;4979967;28;20012;-78
2024/01/11 14:09:55;;;;;;;46.00;18.30;;;;;;;;;;4957314;29;20045;-79
2024/01/11 14:12:21;;;;;;;47.00;17.80;;;;;;;;;;4925373;29;20039;-79
2024/01/11 14:14:46;;;;;;;42.45;17.15;;;;;;;;;;4923885;29;20039;-79
2024/01/11 14:17:12;;;;;;;45.72;16.92;;;;;;;;;;4925633;29;20051;-79
2024/01/11 14:19:39;;;;;;;44.08;17.63;;;;;;;;;;4908328;29;20122;-80
2024/01/11 14:22:04;;;;;;;42.72;17.30;;;;;;;;;;4940218;29;20062;-79
2024/01/11 14:24:30;;;;;;;41.13;17.17;;;;;;;;;;4938999;29;20042;-80
2024/01/11 14:26:55;;;;;;;43.78;18.63;;;;;;;;;;4905499;29;20039;-79
2024/01/11 14:29:21;;;;;;;39.45;17.00;;;;;;;;;;4955594;29;20162;-79
2024/01/11 14:31:47;;;;;;;44.00;18.42;;;;;;;;;;4924347;29;20031;-78
2024/01/11 14:34:13;;;;;;;44.03;17.33;;;;;;;;;;4940732;29;20510;-79